Terminal Aerodrome Forecast
Issued by NWS

Home | Current Version | Previous Version | Text Only | Print | Product List | Glossary On
Versions: 1 2 3 4 5 6 7 8 9 10 11 12 13 14 15 16 17 18 19 20 21 22
000
FTUS46 KSEW 281900 AAA
TAFPAE
TAF AMD
KPAE 281902Z 2819/2918 36003KT P6SM FEW015 OVC035
     FM282100 VRB04KT P6SM BKN045
     FM290200 17004KT P6SM SCT050 BKN100
     FM290600 15004KT P6SM OVC050=

USA.gov is the U.S. government's official web portal to all federal, state and local government web resources and services.